Time;durP1;ratioP1;P1;durP2;ratioP2;P2;SDS_P1;SDS_P2;PMS_P1;PMS_P2;Temp;Humidity;BMP_temperature;BMP_pressure;BME280_temperature;BME280_humidity;BME280_pressure;Samples;Min_cycle;Max_cycle;Signal;HPM_P1;HPM_P2
2019/10/11 00:00:05;;;;;;;8;3.05;;;;;;;6.47;100;95848.91;;;;
2019/10/11 00:01:07;;;;;;;8;3.05;;;;;;;6.47;100;95848.91;;;;
2019/10/11 00:02:08;;;;;;;8;3.05;;;;;;;6.47;100;95848.91;;;;
2019/10/11 00:03:09;;;;;;;8;3.05;;;;;;;6.47;100;95848.91;;;;
2019/10/11 00:04:10;;;;;;;8;3.05;;;;;;;6.47;100;95848.91;;;;
2019/10/11 00:05:11;;;;;;;8;3.05;;;;;;;6.47;100;95848.91;;;;
2019/10/11 00:06:12;;;;;;;8;3.05;;;;;;;6.47;100;95848.91;;;;
2019/10/11 00:07:13;;;;;;;8;3.05;;;;;;;6.47;100;95848.91;;;;
2019/10/11 00:08:14;;;;;;;8;3.05;;;;;;;6.47;100;95848.91;;;;
2019/10/11 00:09:16;;;;;;;7.15;3.55;;;;;;;6.59;100;95866.11;;;;
2019/10/11 00:10:20;;;;;;;7.15;3.55;;;;;;;6.59;100;95866.11;;;;
2019/10/11 00:11:22;;;;;;;7.15;3.55;;;;;;;6.59;100;95866.11;;;;
2019/10/11 00:12:23;;;;;;;7.15;3.55;;;;;;;6.59;100;95866.11;;;;
2019/10/11 00:13:24;;;;;;;7.15;3.55;;;;;;;6.59;100;95866.11;;;;
2019/10/11 00:14:25;;;;;;;7.15;3.55;;;;;;;6.59;100;95866.11;;;;
2019/10/11 00:15:26;;;;;;;7.15;3.55;;;;;;;6.59;100;95866.11;;;;
2019/10/11 00:16:27;;;;;;;7.15;3.55;;;;;;;6.59;100;95866.11;;;;
2019/10/11 00:17:28;;;;;;;7.15;3.55;;;;;;;6.59;100;95866.11;;;;
2019/10/11 00:18:29;;;;;;;7.15;3.55;;;;;;;6.59;100;95866.11;;;;
2019/10/11 00:19:31;;;;;;;4.15;2.8;;;;;;;6.49;100;95851.81;;;;
2019/10/11 00:20:32;;;;;;;4.15;2.8;;;;;;;6.49;100;95851.81;;;;
2019/10/11 00:21:33;;;;;;;4.15;2.8;;;;;;;6.49;100;95851.81;;;;
2019/10/11 00:22:34;;;;;;;4.15;2.8;;;;;;;6.49;100;95851.81;;;;
2019/10/11 00:23:35;;;;;;;4.15;2.8;;;;;;;6.49;100;95851.81;;;;
2019/10/11 00:24:37;;;;;;;4.15;2.8;;;;;;;6.49;100;95851.81;;;;
2019/10/11 00:25:38;;;;;;;4.15;2.8;;;;;;;6.49;100;95851.81;;;;
2019/10/11 00:27:10;;;;;;;4.15;2.8;;;;;;;6.49;100;95851.81;;;;
2019/10/11 00:28:12;;;;;;;4.15;2.8;;;;;;;6.49;100;95851.81;;;;
2019/10/11 00:29:13;;;;;;;4.15;2.8;;;;;;;6.49;100;95851.81;;;;
2019/10/11 00:30:14;;;;;;;4.600001;3.1;;;;;;;6.3;100;95837.23;;;;
2019/10/11 00:31:36;;;;;;;4.600001;3.1;;;;;;;6.3;100;95837.23;;;;
2019/10/11 00:32:37;;;;;;;4.600001;3.1;;;;;;;6.3;100;95837.23;;;;
2019/10/11 00:33:38;;;;;;;4.600001;3.1;;;;;;;6.3;100;95837.23;;;;
2019/10/11 00:34:40;;;;;;;4.600001;3.1;;;;;;;6.3;100;95837.23;;;;
2019/10/11 00:35:41;;;;;;;4.600001;3.1;;;;;;;6.3;100;95837.23;;;;
2019/10/11 00:36:42;;;;;;;4.600001;3.1;;;;;;;6.3;100;95837.23;;;;
2019/10/11 00:37:43;;;;;;;4.600001;3.1;;;;;;;6.3;100;95837.23;;;;
2019/10/11 00:38:45;;;;;;;4.600001;3.1;;;;;;;6.3;100;95837.23;;;;
2019/10/11 00:39:46;;;;;;;4.600001;3.1;;;;;;;6.3;100;95837.23;;;;
2019/10/11 00:40:47;;;;;;;4.6;2.7;;;;;;;6.1;100;95816.99;;;;
2019/10/11 00:41:48;;;;;;;4.6;2.7;;;;;;;6.1;100;95816.99;;;;
2019/10/11 00:42:49;;;;;;;4.6;2.7;;;;;;;6.1;100;95816.99;;;;
2019/10/11 00:43:50;;;;;;;4.6;2.7;;;;;;;6.1;100;95816.99;;;;
2019/10/11 00:44:52;;;;;;;4.6;2.7;;;;;;;6.1;100;95816.99;;;;
2019/10/11 00:45:53;;;;;;;4.6;2.7;;;;;;;6.1;100;95816.99;;;;
2019/10/11 00:46:54;;;;;;;4.6;2.7;;;;;;;6.1;100;95816.99;;;;
2019/10/11 00:47:55;;;;;;;4.6;2.7;;;;;;;6.1;100;95816.99;;;;
2019/10/11 00:48:56;;;;;;;4.6;2.7;;;;;;;6.1;100;95816.99;;;;
2019/10/11 00:49:57;;;;;;;4.6;2.7;;;;;;;6.1;100;95816.99;;;;
2019/10/11 00:50:58;;;;;;;4.3;2.85;;;;;;;5.96;100;95815.33;;;;
2019/10/11 00:52:00;;;;;;;4.3;2.85;;;;;;;5.96;100;95815.33;;;;
2019/10/11 00:53:01;;;;;;;4.3;2.85;;;;;;;5.96;100;95815.33;;;;
2019/10/11 00:54:02;;;;;;;4.3;2.85;;;;;;;5.96;100;95815.33;;;;
2019/10/11 00:55:03;;;;;;;4.3;2.85;;;;;;;5.96;100;95815.33;;;;
2019/10/11 00:56:04;;;;;;;4.3;2.85;;;;;;;5.96;100;95815.33;;;;
2019/10/11 00:57:06;;;;;;;4.3;2.85;;;;;;;5.96;100;95815.33;;;;
2019/10/11 00:58:07;;;;;;;4.3;2.85;;;;;;;5.96;100;95815.33;;;;
2019/10/11 00:59:08;;;;;;;4.3;2.85;;;;;;;5.96;100;95815.33;;;;
2019/10/11 01:00:09;;;;;;;4.3;2.85;;;;;;;5.96;100;95815.33;;;;
2019/10/11 01:01:11;;;;;;;4.3;2.85;;;;;;;5.96;100;95815.33;;;;
2019/10/11 01:02:12;;;;;;;4.3;2.85;;;;;;;5.79;100;95817.85;;;;
2019/10/11 01:03:13;;;;;;;4.3;2.85;;;;;;;5.79;100;95817.85;;;;
2019/10/11 01:04:14;;;;;;;4.3;2.85;;;;;;;5.79;100;95817.85;;;;
2019/10/11 01:05:15;;;;;;;4.3;2.85;;;;;;;5.79;100;95817.85;;;;
2019/10/11 01:06:17;;;;;;;4.3;2.85;;;;;;;5.79;100;95817.85;;;;
2019/10/11 01:07:18;;;;;;;4.3;2.85;;;;;;;5.79;100;95817.85;;;;
2019/10/11 01:08:19;;;;;;;4.3;2.85;;;;;;;5.79;100;95817.85;;;;
2019/10/11 01:09:20;;;;;;;4.3;2.85;;;;;;;5.79;100;95817.85;;;;
2019/10/11 01:10:22;;;;;;;4.3;2.85;;;;;;;5.79;100;95817.85;;;;
2019/10/11 01:11:23;;;;;;;4.3;2.85;;;;;;;5.79;100;95817.85;;;;
2019/10/11 01:12:24;;;;;;;6.4;3.1;;;;;;;5.74;100;95820.68;;;;
2019/10/11 01:13:25;;;;;;;6.4;3.1;;;;;;;5.74;100;95820.68;;;;
2019/10/11 01:14:26;;;;;;;6.4;3.1;;;;;;;5.74;100;95820.68;;;;
2019/10/11 01:15:28;;;;;;;6.4;3.1;;;;;;;5.74;100;95820.68;;;;
2019/10/11 01:16:29;;;;;;;6.4;3.1;;;;;;;5.74;100;95820.68;;;;
2019/10/11 01:17:31;;;;;;;6.4;3.1;;;;;;;5.74;100;95820.68;;;;
2019/10/11 01:18:32;;;;;;;6.4;3.1;;;;;;;5.74;100;95820.68;;;;
2019/10/11 01:19:33;;;;;;;6.4;3.1;;;;;;;5.74;100;95820.68;;;;
2019/10/11 01:20:34;;;;;;;6.4;3.1;;;;;;;5.74;100;95820.68;;;;
2019/10/11 01:21:35;;;;;;;6.4;3.1;;;;;;;5.74;100;95820.68;;;;
2019/10/11 01:22:36;;;;;;;6.4;3.1;;;;;;;5.74;100;95820.68;;;;
2019/10/11 01:23:38;;;;;;;5.55;3.4;;;;;;;5.67;100;95824.33;;;;
2019/10/11 01:24:39;;;;;;;5.55;3.4;;;;;;;5.67;100;95824.33;;;;
2019/10/11 01:25:40;;;;;;;5.55;3.4;;;;;;;5.67;100;95824.33;;;;
2019/10/11 01:26:41;;;;;;;5.55;3.4;;;;;;;5.67;100;95824.33;;;;
2019/10/11 01:27:43;;;;;;;5.55;3.4;;;;;;;5.67;100;95824.33;;;;
2019/10/11 01:28:44;;;;;;;5.55;3.4;;;;;;;5.67;100;95824.33;;;;
2019/10/11 01:29:45;;;;;;;5.55;3.4;;;;;;;5.67;100;95824.33;;;;
2019/10/11 01:30:46;;;;;;;5.55;3.4;;;;;;;5.67;100;95824.33;;;;
2019/10/11 01:31:47;;;;;;;5.55;3.4;;;;;;;5.67;100;95824.33;;;;
2019/10/11 01:32:49;;;;;;;5.55;3.4;;;;;;;5.67;100;95824.33;;;;
2019/10/11 01:33:50;;;;;;;3.95;3.2;;;;;;;5.69;100;95817.86;;;;
2019/10/11 01:34:51;;;;;;;3.95;3.2;;;;;;;5.69;100;95817.86;;;;
2019/10/11 01:35:52;;;;;;;3.95;3.2;;;;;;;5.69;100;95817.86;;;;
2019/10/11 01:36:53;;;;;;;3.95;3.2;;;;;;;5.69;100;95817.86;;;;
2019/10/11 01:37:54;;;;;;;3.95;3.2;;;;;;;5.69;100;95817.86;;;;
2019/10/11 01:38:57;;;;;;;3.95;3.2;;;;;;;5.69;100;95817.86;;;;
2019/10/11 01:39:58;;;;;;;3.95;3.2;;;;;;;5.69;100;95817.86;;;;
2019/10/11 01:40:59;;;;;;;3.95;3.2;;;;;;;5.69;100;95817.86;;;;
2019/10/11 01:42:01;;;;;;;3.95;3.2;;;;;;;5.69;100;95817.86;;;;
2019/10/11 01:43:02;;;;;;;3.95;3.2;;;;;;;5.69;100;95817.86;;;;
2019/10/11 01:44:03;;;;;;;4.799999;3;;;;;;;5.7;100;95800.78;;;;
2019/10/11 01:45:05;;;;;;;4.799999;3;;;;;;;5.7;100;95800.78;;;;
2019/10/11 01:46:06;;;;;;;4.799999;3;;;;;;;5.7;100;95800.78;;;;
2019/10/11 01:47:10;;;;;;;4.799999;3;;;;;;;5.7;100;95800.78;;;;
2019/10/11 01:49:19;;;;;;;4.799999;3;;;;;;;5.7;100;95800.78;;;;
2019/10/11 01:50:29;;;;;;;4.799999;3;;;;;;;5.7;100;95800.78;;;;
2019/10/11 01:56:40;;;;;;;5.45;3.8;;;;;;;5.74;100;95791.35;;;;
2019/10/11 01:57:41;;;;;;;5.45;3.8;;;;;;;5.74;100;95791.35;;;;
2019/10/11 01:58:42;;;;;;;5.45;3.8;;;;;;;5.74;100;95791.35;;;;
2019/10/11 01:59:44;;;;;;;5.45;3.8;;;;;;;5.74;100;95791.35;;;;
2019/10/11 02:00:45;;;;;;;5.45;3.8;;;;;;;5.74;100;95791.35;;;;
2019/10/11 02:01:46;;;;;;;5.45;3.8;;;;;;;5.74;100;95791.35;;;;
2019/10/11 02:02:47;;;;;;;5.45;3.8;;;;;;;5.74;100;95791.35;;;;
2019/10/11 02:03:48;;;;;;;5.45;3.8;;;;;;;5.74;100;95791.35;;;;
2019/10/11 02:04:50;;;;;;;5.45;3.8;;;;;;;5.74;100;95791.35;;;;
2019/10/11 02:05:51;;;;;;;4.85;3.25;;;;;;;5.7;100;95791.82;;;;
2019/10/11 02:06:52;;;;;;;4.85;3.25;;;;;;;5.7;100;95791.82;;;;
2019/10/11 02:07:53;;;;;;;4.85;3.25;;;;;;;5.7;100;95791.82;;;;
2019/10/11 02:08:54;;;;;;;4.85;3.25;;;;;;;5.7;100;95791.82;;;;
2019/10/11 02:09:56;;;;;;;4.85;3.25;;;;;;;5.7;100;95791.82;;;;
2019/10/11 02:10:57;;;;;;;4.85;3.25;;;;;;;5.7;100;95791.82;;;;
2019/10/11 02:11:58;;;;;;;4.85;3.25;;;;;;;5.7;100;95791.82;;;;
2019/10/11 02:12:59;;;;;;;4.85;3.25;;;;;;;5.7;100;95791.82;;;;
2019/10/11 02:14:00;;;;;;;4.85;3.25;;;;;;;5.7;100;95791.82;;;;
2019/10/11 02:15:02;;;;;;;4.85;3.25;;;;;;;5.7;100;95791.82;;;;
2019/10/11 02:16:03;;;;;;;3.85;2.95;;;;;;;5.67;100;95775.61;;;;
2019/10/11 02:17:04;;;;;;;3.85;2.95;;;;;;;5.67;100;95775.61;;;;
2019/10/11 02:18:06;;;;;;;3.85;2.95;;;;;;;5.67;100;95775.61;;;;
2019/10/11 02:19:08;;;;;;;3.85;2.95;;;;;;;5.67;100;95775.61;;;;
2019/10/11 02:20:09;;;;;;;3.85;2.95;;;;;;;5.67;100;95775.61;;;;
2019/10/11 02:21:10;;;;;;;3.85;2.95;;;;;;;5.67;100;95775.61;;;;
2019/10/11 02:22:12;;;;;;;3.85;2.95;;;;;;;5.67;100;95775.61;;;;
2019/10/11 02:23:13;;;;;;;3.85;2.95;;;;;;;5.67;100;95775.61;;;;
2019/10/11 02:24:14;;;;;;;3.85;2.95;;;;;;;5.67;100;95775.61;;;;
2019/10/11 02:25:15;;;;;;;3.85;2.95;;;;;;;5.67;100;95775.61;;;;
2019/10/11 02:26:16;;;;;;;3.85;2.95;;;;;;;5.67;100;95775.61;;;;
2019/10/11 02:27:18;;;;;;;5.650001;2.8;;;;;;;5.5;100;95778.77;;;;
2019/10/11 02:28:19;;;;;;;5.650001;2.8;;;;;;;5.5;100;95778.77;;;;
2019/10/11 02:29:20;;;;;;;5.650001;2.8;;;;;;;5.5;100;95778.77;;;;
2019/10/11 02:30:21;;;;;;;5.650001;2.8;;;;;;;5.5;100;95778.77;;;;
2019/10/11 02:31:22;;;;;;;5.650001;2.8;;;;;;;5.5;100;95778.77;;;;
2019/10/11 02:32:24;;;;;;;5.650001;2.8;;;;;;;5.5;100;95778.77;;;;
2019/10/11 02:33:25;;;;;;;5.650001;2.8;;;;;;;5.5;100;95778.77;;;;
2019/10/11 02:34:26;;;;;;;5.650001;2.8;;;;;;;5.5;100;95778.77;;;;
2019/10/11 02:35:27;;;;;;;5.650001;2.8;;;;;;;5.5;100;95778.77;;;;
2019/10/11 02:36:28;;;;;;;5.650001;2.8;;;;;;;5.5;100;95778.77;;;;
2019/10/11 02:37:29;;;;;;;4.9;2.85;;;;;;;5.37;100;95784.83;;;;
2019/10/11 02:38:30;;;;;;;4.9;2.85;;;;;;;5.37;100;95784.83;;;;
2019/10/11 02:39:31;;;;;;;4.9;2.85;;;;;;;5.37;100;95784.83;;;;
2019/10/11 02:40:33;;;;;;;4.9;2.85;;;;;;;5.37;100;95784.83;;;;
2019/10/11 02:41:34;;;;;;;4.9;2.85;;;;;;;5.37;100;95784.83;;;;
2019/10/11 02:42:35;;;;;;;4.9;2.85;;;;;;;5.37;100;95784.83;;;;
2019/10/11 02:43:38;;;;;;;4.9;2.85;;;;;;;5.37;100;95784.83;;;;
2019/10/11 02:44:39;;;;;;;4.9;2.85;;;;;;;5.37;100;95784.83;;;;
2019/10/11 02:45:41;;;;;;;4.9;2.85;;;;;;;5.37;100;95784.83;;;;
2019/10/11 02:46:43;;;;;;;4.9;2.85;;;;;;;5.37;100;95784.83;;;;
2019/10/11 02:47:44;;;;;;;4.75;2.75;;;;;;;5.22;100;95800.61;;;;
2019/10/11 02:48:47;;;;;;;4.75;2.75;;;;;;;5.22;100;95800.61;;;;
2019/10/11 02:49:50;;;;;;;4.75;2.75;;;;;;;5.22;100;95800.61;;;;
2019/10/11 02:51:00;;;;;;;4.75;2.75;;;;;;;5.22;100;95800.61;;;;
2019/10/11 02:52:42;;;;;;;4.75;2.75;;;;;;;5.22;100;95800.61;;;;
2019/10/11 02:53:50;;;;;;;4.75;2.75;;;;;;;5.22;100;95800.61;;;;
2019/10/11 02:54:55;;;;;;;4.75;2.75;;;;;;;5.22;100;95800.61;;;;
2019/10/11 02:56:00;;;;;;;4.75;2.75;;;;;;;5.22;100;95800.61;;;;
2019/10/11 02:57:03;;;;;;;4.75;2.75;;;;;;;5.22;100;95800.61;;;;
2019/10/11 02:58:04;;;;;;;4.75;2.75;;;;;;;5.22;100;95800.61;;;;
2019/10/11 02:59:05;;;;;;;5.45;3.1;;;;;;;5.13;100;95767.38;;;;
2019/10/11 03:00:06;;;;;;;5.45;3.1;;;;;;;5.13;100;95767.38;;;;
2019/10/11 03:01:08;;;;;;;5.45;3.1;;;;;;;5.13;100;95767.38;;;;
2019/10/11 03:02:10;;;;;;;5.45;3.1;;;;;;;5.13;100;95767.38;;;;
2019/10/11 03:03:15;;;;;;;5.45;3.1;;;;;;;5.13;100;95767.38;;;;
2019/10/11 03:04:17;;;;;;;5.45;3.1;;;;;;;5.13;100;95767.38;;;;
2019/10/11 03:05:18;;;;;;;5.45;3.1;;;;;;;5.13;100;95767.38;;;;
2019/10/11 03:06:19;;;;;;;5.45;3.1;;;;;;;5.13;100;95767.38;;;;
2019/10/11 03:07:21;;;;;;;5.45;3.1;;;;;;;5.13;100;95767.38;;;;
2019/10/11 03:08:22;;;;;;;5.45;3.1;;;;;;;5.13;100;95767.38;;;;
2019/10/11 03:09:23;;;;;;;4.3;2.65;;;;;;;5.05;100;95795.2;;;;
2019/10/11 03:10:24;;;;;;;4.3;2.65;;;;;;;5.05;100;95795.2;;;;
2019/10/11 03:11:25;;;;;;;4.3;2.65;;;;;;;5.05;100;95795.2;;;;
2019/10/11 03:12:26;;;;;;;4.3;2.65;;;;;;;5.05;100;95795.2;;;;
2019/10/11 03:13:28;;;;;;;4.3;2.65;;;;;;;5.05;100;95795.2;;;;
2019/10/11 03:14:29;;;;;;;4.3;2.65;;;;;;;5.05;100;95795.2;;;;
2019/10/11 03:15:30;;;;;;;4.3;2.65;;;;;;;5.05;100;95795.2;;;;
2019/10/11 03:16:31;;;;;;;4.3;2.65;;;;;;;5.05;100;95795.2;;;;
2019/10/11 03:17:32;;;;;;;4.3;2.65;;;;;;;5.05;100;95795.2;;;;
2019/10/11 03:18:33;;;;;;;4.3;2.65;;;;;;;5.05;100;95795.2;;;;
2019/10/11 03:19:34;;;;;;;7.45;3.55;;;;;;;5.08;100;95808.61;;;;
2019/10/11 03:20:36;;;;;;;7.45;3.55;;;;;;;5.08;100;95808.61;;;;
2019/10/11 03:21:37;;;;;;;7.45;3.55;;;;;;;5.08;100;95808.61;;;;
2019/10/11 03:22:39;;;;;;;7.45;3.55;;;;;;;5.08;100;95808.61;;;;
2019/10/11 03:23:40;;;;;;;7.45;3.55;;;;;;;5.08;100;95808.61;;;;
2019/10/11 03:24:41;;;;;;;7.45;3.55;;;;;;;5.08;100;95808.61;;;;
2019/10/11 03:25:42;;;;;;;7.45;3.55;;;;;;;5.08;100;95808.61;;;;
2019/10/11 03:26:43;;;;;;;7.45;3.55;;;;;;;5.08;100;95808.61;;;;
2019/10/11 03:27:45;;;;;;;7.45;3.55;;;;;;;5.08;100;95808.61;;;;
2019/10/11 03:28:46;;;;;;;7.45;3.55;;;;;;;5.08;100;95808.61;;;;
2019/10/11 03:29:47;;;;;;;7.45;3.55;;;;;;;5.08;100;95808.61;;;;
2019/10/11 03:30:54;;;;;;;6.1;3.4;;;;;;;5.09;100;95807.08;;;;
2019/10/11 03:31:56;;;;;;;6.1;3.4;;;;;;;5.09;100;95807.08;;;;
2019/10/11 03:32:57;;;;;;;6.1;3.4;;;;;;;5.09;100;95807.08;;;;
2019/10/11 03:34:14;;;;;;;6.1;3.4;;;;;;;5.09;100;95807.08;;;;
2019/10/11 03:35:16;;;;;;;6.1;3.4;;;;;;;5.09;100;95807.08;;;;
2019/10/11 03:36:17;;;;;;;6.1;3.4;;;;;;;5.09;100;95807.08;;;;
2019/10/11 03:37:18;;;;;;;6.1;3.4;;;;;;;5.09;100;95807.08;;;;
2019/10/11 03:38:20;;;;;;;6.1;3.4;;;;;;;5.09;100;95807.08;;;;
2019/10/11 03:39:23;;;;;;;6.1;3.4;;;;;;;5.09;100;95807.08;;;;
2019/10/11 03:40:45;;;;;;;5.25;3.15;;;;;;;5.15;100;95796.54;;;;
2019/10/11 03:42:15;;;;;;;5.25;3.15;;;;;;;5.15;100;95796.54;;;;
2019/10/11 03:43:18;;;;;;;5.25;3.15;;;;;;;5.15;100;95796.54;;;;
2019/10/11 03:44:20;;;;;;;5.25;3.15;;;;;;;5.15;100;95796.54;;;;
2019/10/11 03:46:32;;;;;;;5.25;3.15;;;;;;;5.15;100;95796.54;;;;
2019/10/11 03:47:37;;;;;;;5.25;3.15;;;;;;;5.15;100;95796.54;;;;
2019/10/11 03:48:38;;;;;;;5.25;3.15;;;;;;;5.15;100;95796.54;;;;
2019/10/11 03:49:40;;;;;;;5.25;3.15;;;;;;;5.15;100;95796.54;;;;
2019/10/11 03:50:41;;;;;;;5.25;3.15;;;;;;;5.15;100;95796.54;;;;
2019/10/11 03:51:42;;;;;;;4.95;2.6;;;;;;;5.15;100;95791.19;;;;
2019/10/11 03:52:44;;;;;;;4.95;2.6;;;;;;;5.15;100;95791.19;;;;
2019/10/11 03:53:45;;;;;;;4.95;2.6;;;;;;;5.15;100;95791.19;;;;
2019/10/11 03:54:46;;;;;;;4.95;2.6;;;;;;;5.15;100;95791.19;;;;
2019/10/11 03:55:47;;;;;;;4.95;2.6;;;;;;;5.15;100;95791.19;;;;
2019/10/11 03:56:48;;;;;;;4.95;2.6;;;;;;;5.15;100;95791.19;;;;
2019/10/11 03:57:50;;;;;;;4.95;2.6;;;;;;;5.15;100;95791.19;;;;
2019/10/11 03:58:51;;;;;;;4.95;2.6;;;;;;;5.15;100;95791.19;;;;
2019/10/11 03:59:52;;;;;;;4.95;2.6;;;;;;;5.15;100;95791.19;;;;
2019/10/11 04:00:53;;;;;;;4.95;2.6;;;;;;;5.15;100;95791.19;;;;
2019/10/11 04:01:54;;;;;;;3.15;2.85;;;;;;;5.21;100;95785.58;;;;
2019/10/11 04:02:55;;;;;;;3.15;2.85;;;;;;;5.21;100;95785.58;;;;
2019/10/11 04:03:57;;;;;;;3.15;2.85;;;;;;;5.21;100;95785.58;;;;
2019/10/11 04:04:59;;;;;;;3.15;2.85;;;;;;;5.21;100;95785.58;;;;
2019/10/11 04:06:00;;;;;;;3.15;2.85;;;;;;;5.21;100;95785.58;;;;
2019/10/11 04:07:02;;;;;;;3.15;2.85;;;;;;;5.21;100;95785.58;;;;
2019/10/11 04:08:04;;;;;;;3.15;2.85;;;;;;;5.21;100;95785.58;;;;
2019/10/11 04:09:06;;;;;;;3.15;2.85;;;;;;;5.21;100;95785.58;;;;
2019/10/11 04:10:07;;;;;;;3.15;2.85;;;;;;;5.21;100;95785.58;;;;
2019/10/11 04:11:54;;;;;;;3.15;2.85;;;;;;;5.21;100;95785.58;;;;
2019/10/11 04:13:02;;;;;;;4.600001;2.7;;;;;;;5.17;100;95781.62;;;;
2019/10/11 04:14:29;;;;;;;4.600001;2.7;;;;;;;5.17;100;95781.62;;;;
2019/10/11 04:15:32;;;;;;;4.600001;2.7;;;;;;;5.17;100;95781.62;;;;
2019/10/11 04:16:35;;;;;;;4.600001;2.7;;;;;;;5.17;100;95781.62;;;;
2019/10/11 04:17:49;;;;;;;4.600001;2.7;;;;;;;5.17;100;95781.62;;;;
2019/10/11 04:18:50;;;;;;;4.600001;2.7;;;;;;;5.17;100;95781.62;;;;
2019/10/11 04:19:57;;;;;;;4.600001;2.7;;;;;;;5.17;100;95781.62;;;;
2019/10/11 04:21:05;;;;;;;4.600001;2.7;;;;;;;5.17;100;95781.62;;;;
2019/10/11 04:22:13;;;;;;;4.600001;2.7;;;;;;;5.17;100;95781.62;;;;
2019/10/11 04:23:18;;;;;;;4.3;2.8;;;;;;;5.25;100;95757.84;;;;
2019/10/11 04:24:44;;;;;;;4.3;2.8;;;;;;;5.25;100;95757.84;;;;
2019/10/11 04:25:56;;;;;;;4.3;2.8;;;;;;;5.25;100;95757.84;;;;
2019/10/11 04:27:05;;;;;;;4.3;2.8;;;;;;;5.25;100;95757.84;;;;
2019/10/11 04:28:26;;;;;;;4.3;2.8;;;;;;;5.25;100;95757.84;;;;
2019/10/11 04:29:28;;;;;;;4.3;2.8;;;;;;;5.25;100;95757.84;;;;
2019/10/11 04:30:39;;;;;;;4.3;2.8;;;;;;;5.25;100;95757.84;;;;
2019/10/11 04:31:43;;;;;;;4.3;2.8;;;;;;;5.25;100;95757.84;;;;
2019/10/11 04:32:48;;;;;;;4.3;2.8;;;;;;;5.25;100;95757.84;;;;
2019/10/11 04:34:13;;;;;;;3.5;2.7;;;;;;;5.27;100;95771.45;;;;
2019/10/11 04:35:15;;;;;;;3.5;2.7;;;;;;;5.27;100;95771.45;;;;
2019/10/11 04:36:17;;;;;;;3.5;2.7;;;;;;;5.27;100;95771.45;;;;
2019/10/11 04:37:19;;;;;;;3.5;2.7;;;;;;;5.27;100;95771.45;;;;
2019/10/11 04:38:20;;;;;;;3.5;2.7;;;;;;;5.27;100;95771.45;;;;
2019/10/11 04:39:22;;;;;;;3.5;2.7;;;;;;;5.27;100;95771.45;;;;
2019/10/11 04:40:23;;;;;;;3.5;2.7;;;;;;;5.27;100;95771.45;;;;
2019/10/11 04:41:24;;;;;;;3.5;2.7;;;;;;;5.27;100;95771.45;;;;
2019/10/11 04:42:25;;;;;;;3.5;2.7;;;;;;;5.27;100;95771.45;;;;
2019/10/11 04:43:26;;;;;;;3.5;2.7;;;;;;;5.27;100;95771.45;;;;
2019/10/11 04:44:28;;;;;;;3.55;1.95;;;;;;;5.3;100;95769.64;;;;
2019/10/11 04:45:29;;;;;;;3.55;1.95;;;;;;;5.3;100;95769.64;;;;
2019/10/11 04:46:30;;;;;;;3.55;1.95;;;;;;;5.3;100;95769.64;;;;
2019/10/11 04:47:31;;;;;;;3.55;1.95;;;;;;;5.3;100;95769.64;;;;
2019/10/11 04:48:32;;;;;;;3.55;1.95;;;;;;;5.3;100;95769.64;;;;
2019/10/11 04:49:34;;;;;;;3.55;1.95;;;;;;;5.3;100;95769.64;;;;
2019/10/11 04:50:35;;;;;;;3.55;1.95;;;;;;;5.3;100;95769.64;;;;
2019/10/11 04:51:36;;;;;;;3.55;1.95;;;;;;;5.3;100;95769.64;;;;
2019/10/11 04:52:37;;;;;;;3.55;1.95;;;;;;;5.3;100;95769.64;;;;
2019/10/11 04:53:39;;;;;;;3.55;1.95;;;;;;;5.3;100;95769.64;;;;
2019/10/11 04:54:40;;;;;;;3.55;1.95;;;;;;;5.3;100;95769.64;;;;
2019/10/11 04:55:41;;;;;;;3.7;2.3;;;;;;;5.21;100;95766.35;;;;
2019/10/11 04:56:42;;;;;;;3.7;2.3;;;;;;;5.21;100;95766.35;;;;
2019/10/11 04:57:44;;;;;;;3.7;2.3;;;;;;;5.21;100;95766.35;;;;
2019/10/11 04:58:45;;;;;;;3.7;2.3;;;;;;;5.21;100;95766.35;;;;
2019/10/11 04:59:46;;;;;;;3.7;2.3;;;;;;;5.21;100;95766.35;;;;
2019/10/11 05:00:47;;;;;;;3.7;2.3;;;;;;;5.21;100;95766.35;;;;
2019/10/11 05:01:49;;;;;;;3.7;2.3;;;;;;;5.21;100;95766.35;;;;
2019/10/11 05:02:50;;;;;;;3.7;2.3;;;;;;;5.21;100;95766.35;;;;
2019/10/11 05:03:51;;;;;;;3.7;2.3;;;;;;;5.21;100;95766.35;;;;
2019/10/11 05:04:52;;;;;;;3.7;2.3;;;;;;;5.21;100;95766.35;;;;
2019/10/11 05:05:53;;;;;;;2.65;2.05;;;;;;;5.08;100;95768.88;;;;
2019/10/11 05:06:54;;;;;;;2.65;2.05;;;;;;;5.08;100;95768.88;;;;
2019/10/11 05:07:56;;;;;;;2.65;2.05;;;;;;;5.08;100;95768.88;;;;
2019/10/11 05:08:57;;;;;;;2.65;2.05;;;;;;;5.08;100;95768.88;;;;
2019/10/11 05:09:58;;;;;;;2.65;2.05;;;;;;;5.08;100;95768.88;;;;
2019/10/11 05:10:59;;;;;;;2.65;2.05;;;;;;;5.08;100;95768.88;;;;
2019/10/11 05:12:00;;;;;;;2.65;2.05;;;;;;;5.08;100;95768.88;;;;
2019/10/11 05:13:01;;;;;;;2.65;2.05;;;;;;;5.08;100;95768.88;;;;
2019/10/11 05:14:02;;;;;;;2.65;2.05;;;;;;;5.08;100;95768.88;;;;
2019/10/11 05:15:04;;;;;;;2.65;2.05;;;;;;;5.08;100;95768.88;;;;
2019/10/11 05:16:05;;;;;;;3.1;2.05;;;;;;;4.89;100;95747.69;;;;
2019/10/11 05:17:07;;;;;;;3.1;2.05;;;;;;;4.89;100;95747.69;;;;
2019/10/11 05:18:08;;;;;;;3.1;2.05;;;;;;;4.89;100;95747.69;;;;
2019/10/11 05:19:09;;;;;;;3.1;2.05;;;;;;;4.89;100;95747.69;;;;
2019/10/11 05:20:10;;;;;;;3.1;2.05;;;;;;;4.89;100;95747.69;;;;
2019/10/11 05:21:11;;;;;;;3.1;2.05;;;;;;;4.89;100;95747.69;;;;
2019/10/11 05:22:12;;;;;;;3.1;2.05;;;;;;;4.89;100;95747.69;;;;
2019/10/11 05:23:13;;;;;;;3.1;2.05;;;;;;;4.89;100;95747.69;;;;
2019/10/11 05:24:15;;;;;;;3.1;2.05;;;;;;;4.89;100;95747.69;;;;
2019/10/11 05:25:16;;;;;;;3.1;2.05;;;;;;;4.89;100;95747.69;;;;
2019/10/11 05:26:17;;;;;;;3.1;2.05;;;;;;;4.89;100;95747.69;;;;
2019/10/11 05:27:18;;;;;;;2.900001;2.25;;;;;;;4.91;100;95721.58;;;;
2019/10/11 05:28:19;;;;;;;2.900001;2.25;;;;;;;4.91;100;95721.58;;;;
2019/10/11 05:29:20;;;;;;;2.900001;2.25;;;;;;;4.91;100;95721.58;;;;
2019/10/11 05:30:22;;;;;;;2.900001;2.25;;;;;;;4.91;100;95721.58;;;;
2019/10/11 05:31:23;;;;;;;2.900001;2.25;;;;;;;4.91;100;95721.58;;;;
2019/10/11 05:32:30;;;;;;;2.900001;2.25;;;;;;;4.91;100;95721.58;;;;
2019/10/11 05:33:37;;;;;;;2.900001;2.25;;;;;;;4.91;100;95721.58;;;;
2019/10/11 05:35:45;;;;;;;2.900001;2.25;;;;;;;4.91;100;95721.58;;;;
2019/10/11 05:36:54;;;;;;;2.900001;2.25;;;;;;;4.91;100;95721.58;;;;
2019/10/11 05:38:07;;;;;;;4.600001;2.3;;;;;;;5.03;100;95710.68;;;;
2019/10/11 05:39:08;;;;;;;4.600001;2.3;;;;;;;5.03;100;95710.68;;;;
2019/10/11 05:40:10;;;;;;;4.600001;2.3;;;;;;;5.03;100;95710.68;;;;
2019/10/11 05:41:11;;;;;;;4.600001;2.3;;;;;;;5.03;100;95710.68;;;;
2019/10/11 05:42:12;;;;;;;4.600001;2.3;;;;;;;5.03;100;95710.68;;;;
2019/10/11 05:43:14;;;;;;;4.600001;2.3;;;;;;;5.03;100;95710.68;;;;
2019/10/11 05:44:15;;;;;;;4.600001;2.3;;;;;;;5.03;100;95710.68;;;;
2019/10/11 05:45:16;;;;;;;4.600001;2.3;;;;;;;5.03;100;95710.68;;;;
2019/10/11 05:46:18;;;;;;;4.600001;2.3;;;;;;;5.03;100;95710.68;;;;
2019/10/11 05:47:20;;;;;;;4.600001;2.3;;;;;;;5.03;100;95710.68;;;;
2019/10/11 05:48:21;;;;;;;2.65;2;;;;;;;5.22;100;95715.37;;;;
2019/10/11 05:49:22;;;;;;;2.65;2;;;;;;;5.22;100;95715.37;;;;
2019/10/11 05:50:23;;;;;;;2.65;2;;;;;;;5.22;100;95715.37;;;;
2019/10/11 05:51:24;;;;;;;2.65;2;;;;;;;5.22;100;95715.37;;;;
2019/10/11 05:52:26;;;;;;;2.65;2;;;;;;;5.22;100;95715.37;;;;
2019/10/11 05:53:27;;;;;;;2.65;2;;;;;;;5.22;100;95715.37;;;;
2019/10/11 05:54:28;;;;;;;2.65;2;;;;;;;5.22;100;95715.37;;;;
2019/10/11 05:55:30;;;;;;;2.65;2;;;;;;;5.22;100;95715.37;;;;
2019/10/11 05:56:31;;;;;;;2.65;2;;;;;;;5.22;100;95715.37;;;;
2019/10/11 05:57:33;;;;;;;2.65;2;;;;;;;5.22;100;95715.37;;;;
2019/10/11 05:58:34;;;;;;;2.65;2;;;;;;;5.22;100;95715.37;;;;
2019/10/11 05:59:35;;;;;;;2.65;2;;;;;;;5.22;100;95715.37;;;;
2019/10/11 06:00:36;;;;;;;2.65;2;;;;;;;5.22;100;95715.37;;;;
2019/10/11 06:01:37;;;;;;;2.65;2;;;;;;;5.22;100;95715.37;;;;
2019/10/11 06:02:38;;;;;;;2.65;2;;;;;;;5.22;100;95715.37;;;;
2019/10/11 06:03:40;;;;;;;2.65;2;;;;;;;5.22;100;95715.37;;;;
2019/10/11 06:04:41;;;;;;;2.65;2;;;;;;;5.22;100;95715.37;;;;
2019/10/11 06:05:42;;;;;;;2.65;2;;;;;;;5.22;100;95715.37;;;;
2019/10/11 06:06:43;;;;;;;2.65;2;;;;;;;5.22;100;95715.37;;;;
2019/10/11 06:07:44;;;;;;;2.65;2;;;;;;;5.22;100;95715.37;;;;
2019/10/11 06:08:46;;;;;;;2.65;2;;;;;;;5.22;100;95715.37;;;;
2019/10/11 06:09:47;;;;;;;3.1;2.3;;;;;;;5.65;100;95732.11;;;;
2019/10/11 06:10:48;;;;;;;3.1;2.3;;;;;;;5.65;100;95732.11;;;;
2019/10/11 06:11:49;;;;;;;3.1;2.3;;;;;;;5.65;100;95732.11;;;;
2019/10/11 06:12:51;;;;;;;3.1;2.3;;;;;;;5.65;100;95732.11;;;;
2019/10/11 06:13:52;;;;;;;3.1;2.3;;;;;;;5.65;100;95732.11;;;;
2019/10/11 06:14:53;;;;;;;3.1;2.3;;;;;;;5.65;100;95732.11;;;;
2019/10/11 06:15:54;;;;;;;3.1;2.3;;;;;;;5.65;100;95732.11;;;;
2019/10/11 06:16:55;;;;;;;3.1;2.3;;;;;;;5.65;100;95732.11;;;;
2019/10/11 06:17:57;;;;;;;3.1;2.3;;;;;;;5.65;100;95732.11;;;;
2019/10/11 06:18:58;;;;;;;3.1;2.3;;;;;;;5.65;100;95732.11;;;;
2019/10/11 06:19:59;;;;;;;3.1;2.3;;;;;;;5.65;100;95732.11;;;;
2019/10/11 06:21:00;;;;;;;3;1.7;;;;;;;5.77;100;95725.31;;;;
2019/10/11 06:22:01;;;;;;;3;1.7;;;;;;;5.77;100;95725.31;;;;
2019/10/11 06:23:02;;;;;;;3;1.7;;;;;;;5.77;100;95725.31;;;;
2019/10/11 06:24:04;;;;;;;3;1.7;;;;;;;5.77;100;95725.31;;;;
2019/10/11 06:25:05;;;;;;;3;1.7;;;;;;;5.77;100;95725.31;;;;
2019/10/11 06:26:07;;;;;;;3;1.7;;;;;;;5.77;100;95725.31;;;;
2019/10/11 06:27:08;;;;;;;3;1.7;;;;;;;5.77;100;95725.31;;;;
2019/10/11 06:28:09;;;;;;;3;1.7;;;;;;;5.77;100;95725.31;;;;
2019/10/11 06:29:10;;;;;;;3;1.7;;;;;;;5.77;100;95725.31;;;;
2019/10/11 06:30:12;;;;;;;3;1.7;;;;;;;5.77;100;95725.31;;;;
2019/10/11 06:31:14;;;;;;;6.4;2.1;;;;;;;6.02;100;95730.05;;;;
2019/10/11 06:32:15;;;;;;;6.4;2.1;;;;;;;6.02;100;95730.05;;;;
2019/10/11 06:33:16;;;;;;;6.4;2.1;;;;;;;6.02;100;95730.05;;;;
2019/10/11 06:34:17;;;;;;;6.4;2.1;;;;;;;6.02;100;95730.05;;;;
2019/10/11 06:35:19;;;;;;;6.4;2.1;;;;;;;6.02;100;95730.05;;;;
2019/10/11 06:36:20;;;;;;;6.4;2.1;;;;;;;6.02;100;95730.05;;;;
2019/10/11 06:37:21;;;;;;;6.4;2.1;;;;;;;6.02;100;95730.05;;;;
2019/10/11 06:38:22;;;;;;;6.4;2.1;;;;;;;6.02;100;95730.05;;;;
2019/10/11 06:39:23;;;;;;;6.4;2.1;;;;;;;6.02;100;95730.05;;;;